createdAt,value
2022-10-17T00:01:24.518Z,43.85
2022-10-17T00:03:51.098Z,45.97
2022-10-17T00:06:17.828Z,41.67
2022-10-17T00:08:44.491Z,42.80
2022-10-17T00:11:23.055Z,44.17
2022-10-17T00:13:51.406Z,47.33
2022-10-17T00:16:37.572Z,53.13
2022-10-17T00:19:05.890Z,51.70
2022-10-17T00:21:33.356Z,41.10
2022-10-17T00:24:00.835Z,39.63
2022-10-17T00:26:29.616Z,33.22
2022-10-17T00:28:57.112Z,37.92
2022-10-17T00:31:25.017Z,49.13
2022-10-17T00:33:52.608Z,52.88
2022-10-17T00:36:22.233Z,50.88
2022-10-17T00:38:52.864Z,49.75
2022-10-17T00:41:21.459Z,51.78
2022-10-17T00:43:58.180Z,49.28
2022-10-17T00:46:27.849Z,46.38
2022-10-17T00:48:56.308Z,43.05
2022-10-17T00:51:30.077Z,36.50
2022-10-17T00:53:56.672Z,47.30
2022-10-17T00:56:23.280Z,53.35
2022-10-17T00:58:50.303Z,54.13
2022-10-17T01:01:17.149Z,52.95
2022-10-17T01:03:44.045Z,53.00
2022-10-17T01:06:10.624Z,50.95
2022-10-17T01:08:38.096Z,48.95
2022-10-17T01:13:32.980Z,46.80
2022-10-17T01:16:05.756Z,49.05
2022-10-17T01:18:56.668Z,47.22
2022-10-17T01:21:56.652Z,46.15
2022-10-17T01:24:53.152Z,47.30
2022-10-17T01:27:51.949Z,42.25
2022-10-17T01:30:44.388Z,41.45
2022-10-17T01:33:17.520Z,41.07
2022-10-17T01:35:44.600Z,38.45
2022-10-17T01:38:17.113Z,41.47
2022-10-17T01:41:10.441Z,38.45
2022-10-17T01:43:44.557Z,43.28
2022-10-17T01:46:35.972Z,43.63
2022-10-17T01:49:05.764Z,42.97
2022-10-17T01:52:08.807Z,38.92
2022-10-17T01:54:53.861Z,35.65
2022-10-17T01:57:44.894Z,36.33
2022-10-17T02:00:17.812Z,38.45
2022-10-17T02:02:46.917Z,45.28
2022-10-17T02:05:19.262Z,49.08
2022-10-17T02:07:45.836Z,45.70
2022-10-17T02:10:25.089Z,45.58
2022-10-17T02:12:59.889Z,39.95
2022-10-17T02:15:39.675Z,39.80
2022-10-17T02:18:21.204Z,39.72
2022-10-17T02:21:02.968Z,39.13
2022-10-17T02:23:42.313Z,40.58
2022-10-17T02:26:33.924Z,36.58
2022-10-17T02:29:18.673Z,37.63
2022-10-17T02:32:06.863Z,41.08
2022-10-17T02:34:47.545Z,38.88
2022-10-17T02:37:19.344Z,38.15
2022-10-17T02:39:47.558Z,39.63
2022-10-17T02:42:15.100Z,43.08
2022-10-17T02:44:44.560Z,37.35
2022-10-17T02:47:19.017Z,38.08
2022-10-17T02:49:52.007Z,46.03
2022-10-17T02:52:51.832Z,43.20
2022-10-17T02:55:23.188Z,44.75
2022-10-17T02:57:54.210Z,44.55
2022-10-17T03:00:24.838Z,45.70
2022-10-17T03:02:53.151Z,47.60
2022-10-17T03:05:28.633Z,50.00
2022-10-17T03:07:55.843Z,49.40
2022-10-17T03:10:24.249Z,48.15
2022-10-17T03:12:50.991Z,49.38
2022-10-17T03:15:19.261Z,42.63
2022-10-17T03:20:18.476Z,45.55
2022-10-17T03:22:45.322Z,55.28
2022-10-17T03:25:11.883Z,58.85
2022-10-17T03:27:38.476Z,58.53
2022-10-17T03:30:05.608Z,59.72
2022-10-17T03:32:34.062Z,55.40
2022-10-17T03:35:01.083Z,51.65
2022-10-17T03:37:27.919Z,50.58
2022-10-17T03:39:55.080Z,48.38
2022-10-17T03:42:21.651Z,46.60
2022-10-17T03:44:48.600Z,44.67
2022-10-17T03:47:15.150Z,42.58
2022-10-17T03:49:42.010Z,38.38
2022-10-17T03:52:12.673Z,35.17
2022-10-17T03:54:39.880Z,36.40
2022-10-17T03:57:06.820Z,38.38
2022-10-17T03:59:33.481Z,39.92
2022-10-17T04:02:07.947Z,38.60
2022-10-17T04:04:35.380Z,34.08
2022-10-17T04:07:03.432Z,33.97
2022-10-17T04:09:30.397Z,33.25
2022-10-17T04:12:05.608Z,38.88
2022-10-17T04:14:33.450Z,39.35
2022-10-17T04:17:01.125Z,41.55
2022-10-17T04:19:28.704Z,46.38
2022-10-17T04:21:55.651Z,40.42
2022-10-17T04:24:22.622Z,41.92
2022-10-17T04:27:03.085Z,43.20
2022-10-17T04:29:32.577Z,46.33
2022-10-17T04:32:19.385Z,48.15
2022-10-17T04:34:50.180Z,45.45
2022-10-17T04:37:18.043Z,44.20
2022-10-17T04:39:46.303Z,46.08
2022-10-17T04:42:12.957Z,44.88
2022-10-17T04:44:40.674Z,46.97
2022-10-17T04:47:08.398Z,44.22
2022-10-17T04:49:35.023Z,41.13
2022-10-17T04:52:10.161Z,38.28
2022-10-17T04:54:39.773Z,40.67
2022-10-17T04:57:09.214Z,33.53
2022-10-17T04:59:36.063Z,33.45
2022-10-17T05:02:16.884Z,30.17
2022-10-17T05:04:45.008Z,31.15
2022-10-17T05:07:12.476Z,28.90
2022-10-17T05:09:47.512Z,35.35
2022-10-17T05:12:15.788Z,33.20
2022-10-17T05:14:44.767Z,30.48
2022-10-17T05:17:14.054Z,33.22
2022-10-17T05:19:40.600Z,34.88
2022-10-17T05:22:08.075Z,33.10
2022-10-17T05:24:34.685Z,34.13
2022-10-17T05:27:01.276Z,41.85
2022-10-17T05:29:28.013Z,52.53
2022-10-17T05:32:03.360Z,51.78
2022-10-17T05:34:29.899Z,53.03
2022-10-17T05:36:57.494Z,54.67
2022-10-17T05:39:24.590Z,45.58
2022-10-17T05:41:52.443Z,43.22
2022-10-17T05:44:19.144Z,46.75
2022-10-17T05:46:51.622Z,49.00
2022-10-17T05:49:31.972Z,45.25
2022-10-17T05:54:30.873Z,46.40
2022-10-17T05:56:57.856Z,47.95
2022-10-17T05:59:28.835Z,49.80
2022-10-17T06:02:00.769Z,51.38
2022-10-17T06:04:27.832Z,45.78
2022-10-17T06:06:56.255Z,51.10
2022-10-17T06:09:23.704Z,49.53
2022-10-17T06:11:52.948Z,51.50
2022-10-17T06:14:20.108Z,50.40
2022-10-17T06:16:49.077Z,49.60
2022-10-17T06:19:16.198Z,52.20
2022-10-17T06:21:42.909Z,49.40
2022-10-17T06:24:13.209Z,50.55
2022-10-17T06:26:41.939Z,48.80
2022-10-17T06:29:10.753Z,45.33
2022-10-17T06:31:43.738Z,44.10
2022-10-17T06:34:10.528Z,43.75
2022-10-17T06:36:38.709Z,40.13
2022-10-17T06:41:35.552Z,41.38
2022-10-17T06:44:10.901Z,38.35
2022-10-17T06:46:56.263Z,39.70
2022-10-17T06:49:23.073Z,40.22
2022-10-17T06:52:28.231Z,36.90
2022-10-17T06:55:23.054Z,37.53
2022-10-17T06:58:12.704Z,35.55
2022-10-17T07:00:47.103Z,37.28
2022-10-17T07:03:16.217Z,34.78
2022-10-17T07:05:42.756Z,35.00
2022-10-17T07:08:09.528Z,35.80
2022-10-17T07:10:38.580Z,35.28
2022-10-17T07:13:07.199Z,34.45
2022-10-17T07:15:37.779Z,37.45
2022-10-17T07:18:05.734Z,36.03
2022-10-17T07:20:32.812Z,32.17
2022-10-17T07:22:59.437Z,32.53
2022-10-17T07:25:26.364Z,27.50
2022-10-17T07:27:57.352Z,26.83
2022-10-17T07:30:24.529Z,25.13
2022-10-17T07:33:00.488Z,26.00
2022-10-17T07:35:27.564Z,27.15
2022-10-17T07:37:54.776Z,27.95
2022-10-17T07:40:21.733Z,26.50
2022-10-17T07:42:48.258Z,28.15
2022-10-17T07:45:17.048Z,25.58
2022-10-17T07:47:44.310Z,25.77
2022-10-17T07:50:14.735Z,25.95
2022-10-17T07:52:43.171Z,24.33
2022-10-17T07:55:10.073Z,23.75
2022-10-17T07:57:36.650Z,20.92
2022-10-17T08:00:03.565Z,21.33
2022-10-17T08:02:39.470Z,21.95
2022-10-17T08:05:06.409Z,20.00
2022-10-17T08:07:32.979Z,21.83
2022-10-17T08:09:59.675Z,18.83
2022-10-17T08:12:26.362Z,21.60
2022-10-17T08:14:52.955Z,19.92
2022-10-17T08:17:19.523Z,18.75
2022-10-17T08:19:46.072Z,18.27
2022-10-17T08:22:12.552Z,18.25
2022-10-17T08:24:39.136Z,19.10
2022-10-17T08:27:11.278Z,18.83
2022-10-17T08:29:39.119Z,18.08
2022-10-17T08:32:09.072Z,17.17
2022-10-17T08:34:36.438Z,18.70
2022-10-17T08:37:03.061Z,18.73
2022-10-17T08:39:29.623Z,17.25
2022-10-17T08:42:05.307Z,16.38
2022-10-17T08:44:46.960Z,16.52
2022-10-17T08:47:27.262Z,16.67
2022-10-17T08:49:58.308Z,15.48
2022-10-17T08:52:42.689Z,16.85
2022-10-17T08:55:32.202Z,15.80
2022-10-17T08:57:59.013Z,14.98
2022-10-17T09:00:28.444Z,15.80
2022-10-17T09:03:07.118Z,16.73
2022-10-17T09:05:49.240Z,15.18
2022-10-17T09:10:50.927Z,16.13
2022-10-17T09:13:38.294Z,14.38
2022-10-17T09:16:30.199Z,14.48
2022-10-17T09:19:05.085Z,14.13
2022-10-17T09:21:49.985Z,14.32
2022-10-17T09:24:25.325Z,12.88
2022-10-17T09:26:53.866Z,12.50
2022-10-17T09:29:23.764Z,12.77
2022-10-17T09:32:21.996Z,12.38
2022-10-17T09:34:48.896Z,12.65
2022-10-17T09:37:17.319Z,13.10
2022-10-17T09:39:44.685Z,14.02
2022-10-17T09:42:18.656Z,14.23
2022-10-17T09:44:58.167Z,12.82
2022-10-17T09:47:46.534Z,14.23
2022-10-17T09:50:24.982Z,12.38
2022-10-17T09:52:53.316Z,12.90
2022-10-17T09:55:47.849Z,14.38
2022-10-17T09:58:15.013Z,12.48
2022-10-17T10:00:44.437Z,11.82
2022-10-17T10:03:27.305Z,14.00
2022-10-17T10:06:18.028Z,11.70
2022-10-17T10:08:53.479Z,12.32
2022-10-17T10:11:26.027Z,12.63
2022-10-17T10:13:52.860Z,13.50
2022-10-17T10:16:30.598Z,12.65
2022-10-17T10:18:58.048Z,12.10
2022-10-17T10:21:27.005Z,14.43
2022-10-17T10:23:59.910Z,11.95
2022-10-17T10:26:32.226Z,11.38
2022-10-17T10:29:03.278Z,12.82
2022-10-17T10:31:40.341Z,11.73
2022-10-17T10:34:22.321Z,10.43
2022-10-17T10:37:00.820Z,11.02
2022-10-17T10:39:36.148Z,11.50
2022-10-17T10:42:06.810Z,9.98
2022-10-17T10:44:36.550Z,10.70
2022-10-17T10:47:17.012Z,10.57
2022-10-17T10:49:44.478Z,12.05
2022-10-17T10:52:35.498Z,10.45
2022-10-17T10:55:22.848Z,9.67
2022-10-17T10:57:53.163Z,10.43
2022-10-17T11:00:25.065Z,10.02
2022-10-17T11:03:04.505Z,10.27
2022-10-17T11:05:46.232Z,10.18
2022-10-17T11:08:45.715Z,10.60
2022-10-17T11:11:27.932Z,10.10
2022-10-17T11:14:03.583Z,10.18
2022-10-17T11:16:42.060Z,10.30
2022-10-17T11:19:36.361Z,9.48
2022-10-17T11:22:08.153Z,9.55
2022-10-17T11:29:40.460Z,10.52
2022-10-17T11:32:45.437Z,9.90
2022-10-17T11:35:36.688Z,8.88
2022-10-17T11:38:15.340Z,9.30
2022-10-17T11:40:47.776Z,9.35
2022-10-17T11:43:27.411Z,11.10
2022-10-17T11:46:03.304Z,9.48
2022-10-17T11:48:37.216Z,10.13
2022-10-17T11:54:23.153Z,9.50
2022-10-17T11:57:09.883Z,9.23
2022-10-17T12:00:06.681Z,10.05
2022-10-17T12:02:53.402Z,8.88
2022-10-17T12:05:37.281Z,9.55
2022-10-17T12:08:20.670Z,8.32
2022-10-17T12:10:57.952Z,8.80
2022-10-17T12:13:48.707Z,8.38
2022-10-17T12:16:21.424Z,8.85
2022-10-17T12:19:06.241Z,10.13
2022-10-17T12:22:06.985Z,10.25
2022-10-17T12:24:41.897Z,10.13
2022-10-17T12:27:45.793Z,9.40
2022-10-17T12:30:15.408Z,9.00
2022-10-17T12:33:14.385Z,10.57
2022-10-17T12:35:41.194Z,9.13
2022-10-17T12:38:16.733Z,9.70
2022-10-17T12:40:48.465Z,10.43
2022-10-17T12:43:15.458Z,8.90
2022-10-17T12:45:56.349Z,8.73
2022-10-17T12:48:38.407Z,9.13
2022-10-17T12:51:35.299Z,8.98
2022-10-17T12:54:15.229Z,10.38
2022-10-17T12:56:47.953Z,8.75
2022-10-17T12:59:20.382Z,9.50
2022-10-17T13:01:51.058Z,9.70
2022-10-17T13:04:18.775Z,10.10
2022-10-17T13:06:48.544Z,10.30
2022-10-17T13:09:38.829Z,8.75
2022-10-17T13:12:13.364Z,8.95
2022-10-17T13:14:42.708Z,9.18
2022-10-17T13:17:27.529Z,10.10
2022-10-17T13:19:55.863Z,9.77
2022-10-17T13:24:43.194Z,9.18
2022-10-17T13:27:28.672Z,8.32
2022-10-17T13:29:57.052Z,10.43
2022-10-17T13:32:25.372Z,8.68
2022-10-17T13:35:12.100Z,9.15
2022-10-17T13:37:43.773Z,9.90
2022-10-17T13:43:19.471Z,9.65
2022-10-17T13:45:52.708Z,9.73
2022-10-17T13:48:25.824Z,9.23
2022-10-17T13:51:02.414Z,10.18
2022-10-17T13:53:34.753Z,9.38
2022-10-17T13:59:01.386Z,9.02
2022-10-17T14:01:29.065Z,8.70
2022-10-17T14:04:08.883Z,9.57
2022-10-17T14:06:45.158Z,8.30
2022-10-17T14:09:40.627Z,9.30
2022-10-17T14:12:13.000Z,9.48
2022-10-17T14:15:05.541Z,10.52
2022-10-17T14:17:33.641Z,10.68
2022-10-17T14:20:34.481Z,10.43
2022-10-17T14:23:04.466Z,12.30
2022-10-17T14:25:39.959Z,12.45
2022-10-17T14:28:13.898Z,13.10
2022-10-17T14:30:56.412Z,10.88
2022-10-17T14:33:28.422Z,11.07
2022-10-17T14:35:58.475Z,11.10
2022-10-17T14:38:25.935Z,10.15
2022-10-17T14:43:55.669Z,9.88
2022-10-17T14:46:22.692Z,10.00
2022-10-17T14:48:55.036Z,10.35
2022-10-17T14:51:22.244Z,10.07
2022-10-17T14:54:29.150Z,14.35
2022-10-17T14:56:56.028Z,10.32
2022-10-17T14:59:52.318Z,9.90
2022-10-17T15:02:11.689Z,8.75
2022-10-17T15:04:38.185Z,16.00
2022-10-17T15:07:05.018Z,15.15
2022-10-17T15:09:31.843Z,13.45
2022-10-17T15:12:03.009Z,12.73
2022-10-17T15:14:29.575Z,24.77
2022-10-17T15:16:56.196Z,34.95
2022-10-17T15:19:22.793Z,28.20
2022-10-17T15:21:49.282Z,15.52
2022-10-17T15:24:20.063Z,11.27
2022-10-17T15:26:46.783Z,11.07
2022-10-17T15:29:16.123Z,9.82
2022-10-17T15:31:43.722Z,9.65
2022-10-17T15:34:10.309Z,10.27
2022-10-17T15:36:41.843Z,10.80
2022-10-17T15:39:09.877Z,11.77
2022-10-17T15:41:36.392Z,54.67
2022-10-17T15:44:03.179Z,119.82
2022-10-17T15:46:33.942Z,53.10
2022-10-17T15:49:07.620Z,24.02
2022-10-17T15:51:34.641Z,20.85
2022-10-17T15:54:01.744Z,17.52
2022-10-17T15:56:28.375Z,14.18
2022-10-17T15:58:54.988Z,15.05
2022-10-17T16:01:25.768Z,10.90
2022-10-17T16:03:52.917Z,11.40
2022-10-17T16:06:20.837Z,11.50
2022-10-17T16:08:48.071Z,12.30
2022-10-17T16:11:17.946Z,9.38
2022-10-17T16:13:53.149Z,9.27
2022-10-17T16:16:22.018Z,7.97
2022-10-17T16:18:48.807Z,6.75
2022-10-17T16:21:16.824Z,7.72
2022-10-17T16:23:43.563Z,9.20
2022-10-17T16:26:10.245Z,13.55
2022-10-17T16:28:37.144Z,13.32
2022-10-17T16:31:03.744Z,13.18
2022-10-17T16:33:31.592Z,14.63
2022-10-17T16:35:58.280Z,19.92
2022-10-17T16:38:24.830Z,17.02
2022-10-17T16:40:51.373Z,15.85
2022-10-17T16:43:17.914Z,14.60
2022-10-17T16:45:44.451Z,14.50
2022-10-17T16:48:12.128Z,44.15
2022-10-17T16:50:40.055Z,34.38
2022-10-17T16:53:06.595Z,38.50
2022-10-17T16:55:33.158Z,25.90
2022-10-17T16:58:00.097Z,23.05
2022-10-17T17:00:26.859Z,25.13
2022-10-17T17:02:53.725Z,19.83
2022-10-17T17:05:20.607Z,55.72
2022-10-17T17:07:48.001Z,45.00
2022-10-17T17:10:15.603Z,33.40
2022-10-17T17:12:42.160Z,27.58
2022-10-17T17:15:08.979Z,20.30
2022-10-17T17:17:50.209Z,20.23
2022-10-17T17:20:18.009Z,39.10
2022-10-17T17:22:44.551Z,38.65
2022-10-17T17:25:11.134Z,19.58
2022-10-17T17:27:37.655Z,11.65
2022-10-17T17:30:04.572Z,10.90
2022-10-17T17:32:32.597Z,9.95
2022-10-17T17:34:59.172Z,16.27
2022-10-17T17:37:25.936Z,16.05
2022-10-17T17:39:55.460Z,24.73
2022-10-17T17:42:22.157Z,22.40
2022-10-17T17:44:49.657Z,21.98
2022-10-17T17:47:16.200Z,23.27
2022-10-17T17:49:43.280Z,27.67
2022-10-17T17:52:09.821Z,30.35
2022-10-17T17:54:40.951Z,37.65
2022-10-17T17:57:07.922Z,39.15
2022-10-17T17:59:34.612Z,39.60
2022-10-17T18:02:02.812Z,32.92
2022-10-17T18:04:29.533Z,33.85
2022-10-17T18:06:56.183Z,35.58
2022-10-17T18:09:23.591Z,33.63
2022-10-17T18:11:50.181Z,32.50
2022-10-17T18:14:19.009Z,37.10
2022-10-17T18:16:45.877Z,37.10
2022-10-17T18:19:13.298Z,33.72
2022-10-17T18:21:39.942Z,28.42
2022-10-17T18:24:07.440Z,25.33
2022-10-17T18:26:34.934Z,25.88
2022-10-17T18:29:01.632Z,28.52
2022-10-17T18:31:31.925Z,80.72
2022-10-17T18:34:02.075Z,114.65
2022-10-17T18:36:30.575Z,289.95
2022-10-17T18:38:57.454Z,264.52
2022-10-17T18:41:26.089Z,144.18
2022-10-17T18:43:54.645Z,109.28
2022-10-17T18:46:26.999Z,52.00
2022-10-17T18:48:54.401Z,32.15
2022-10-17T18:51:22.926Z,24.38
2022-10-17T18:53:53.612Z,18.05
2022-10-17T18:56:21.132Z,19.08
2022-10-17T18:58:48.367Z,17.00
2022-10-17T19:01:20.693Z,17.95
2022-10-17T19:03:49.040Z,19.20
2022-10-17T19:06:18.182Z,19.83
2022-10-17T19:08:45.772Z,22.80
2022-10-17T19:11:24.491Z,301.08
2022-10-17T19:13:52.501Z,194.57
2022-10-17T19:16:22.475Z,85.65
2022-10-17T19:18:55.214Z,30.27
2022-10-17T19:21:22.442Z,20.13
2022-10-17T19:23:51.509Z,33.80
2022-10-17T19:26:19.433Z,28.23
2022-10-17T19:28:47.576Z,25.90
2022-10-17T19:31:17.921Z,26.17
2022-10-17T19:33:45.043Z,34.53
2022-10-17T19:36:13.380Z,34.72
2022-10-17T19:38:40.006Z,44.80
2022-10-17T19:41:14.994Z,51.10
2022-10-17T19:43:43.375Z,46.30
2022-10-17T19:46:17.121Z,41.83
2022-10-17T19:48:44.350Z,40.83
2022-10-17T19:51:14.780Z,46.35
2022-10-17T19:53:42.545Z,50.30
2022-10-17T19:56:09.555Z,42.03
2022-10-17T19:58:43.921Z,38.35
2022-10-17T20:01:15.878Z,34.80
2022-10-17T20:06:10.456Z,68.07
2022-10-17T20:08:40.155Z,72.60
2022-10-17T20:11:10.670Z,66.63
2022-10-17T20:13:38.334Z,62.88
2022-10-17T20:16:06.736Z,56.35
2022-10-17T20:18:34.277Z,52.08
2022-10-17T20:21:10.511Z,47.03
2022-10-17T20:23:38.192Z,46.22
2022-10-17T20:26:25.380Z,45.20
2022-10-17T20:28:53.863Z,39.88
2022-10-17T20:31:23.956Z,91.78
2022-10-17T20:33:58.861Z,79.20
2022-10-17T20:36:26.177Z,67.00
2022-10-17T20:38:57.260Z,54.78
2022-10-17T20:41:24.078Z,59.17
2022-10-17T20:43:52.169Z,59.58
2022-10-17T20:46:35.126Z,53.25
2022-10-17T20:49:03.685Z,55.88
2022-10-17T20:51:30.213Z,50.67
2022-10-17T20:56:30.452Z,47.53
2022-10-17T20:58:59.822Z,46.47
2022-10-17T21:01:28.164Z,48.05
2022-10-17T21:03:54.867Z,50.72
2022-10-17T21:06:22.157Z,54.45
2022-10-17T21:08:48.708Z,56.22
2022-10-17T21:11:16.733Z,61.15
2022-10-17T21:13:44.439Z,40.08
2022-10-17T21:16:14.909Z,34.88
2022-10-17T21:18:42.230Z,35.20
2022-10-17T21:21:08.707Z,38.28
2022-10-17T21:23:35.485Z,33.83
2022-10-17T21:26:03.737Z,34.70
2022-10-17T21:28:31.064Z,35.10
2022-10-17T21:31:10.448Z,37.63
2022-10-17T21:33:37.540Z,41.22
2022-10-17T21:36:04.684Z,41.75
2022-10-17T21:38:31.529Z,34.55
2022-10-17T21:40:58.082Z,31.30
2022-10-17T21:43:24.671Z,31.70
2022-10-17T21:45:54.347Z,27.95
2022-10-17T21:48:21.273Z,20.58
2022-10-17T21:50:47.763Z,27.75
2022-10-17T21:53:14.399Z,27.95
2022-10-17T21:55:40.899Z,30.00
2022-10-17T21:58:07.465Z,29.25
2022-10-17T22:00:34.032Z,30.95
2022-10-17T22:03:01.501Z,27.23
2022-10-17T22:05:28.007Z,31.55
2022-10-17T22:07:54.614Z,28.95
2022-10-17T22:10:21.168Z,29.33
2022-10-17T22:12:47.754Z,32.88
2022-10-17T22:17:45.937Z,35.28
2022-10-17T22:20:13.331Z,37.25
2022-10-17T22:22:39.939Z,38.63
2022-10-17T22:25:06.860Z,49.53
2022-10-17T22:27:33.648Z,46.08
2022-10-17T22:30:00.239Z,46.15
2022-10-17T22:32:26.797Z,42.55
2022-10-17T22:34:53.307Z,38.28
2022-10-17T22:37:20.013Z,34.83
2022-10-17T22:39:46.508Z,37.40
2022-10-17T22:42:13.092Z,44.30
2022-10-17T22:44:39.672Z,39.78
2022-10-17T22:47:06.243Z,36.72
2022-10-17T22:49:33.590Z,36.72
2022-10-17T22:52:00.682Z,39.53
2022-10-17T22:54:27.184Z,35.17
2022-10-17T22:56:53.700Z,36.83
2022-10-17T22:59:20.370Z,37.20
2022-10-17T23:01:47.139Z,37.70
2022-10-17T23:04:13.717Z,37.60
2022-10-17T23:06:40.307Z,36.60
2022-10-17T23:09:06.796Z,37.10
2022-10-17T23:11:33.413Z,36.95
2022-10-17T23:13:59.948Z,36.03
2022-10-17T23:16:26.782Z,31.20
2022-10-17T23:18:53.308Z,43.58
2022-10-17T23:21:20.035Z,40.97
2022-10-17T23:23:46.662Z,37.45
2022-10-17T23:26:14.300Z,35.88
2022-10-17T23:28:42.182Z,41.50
2022-10-17T23:31:14.637Z,43.88
2022-10-17T23:33:42.325Z,36.40
2022-10-17T23:36:10.560Z,40.03
2022-10-17T23:38:37.813Z,41.58
2022-10-17T23:41:04.408Z,39.90
2022-10-17T23:43:31.673Z,41.72
2022-10-17T23:45:58.199Z,41.80
2022-10-17T23:48:24.864Z,40.78
2022-10-17T23:50:51.409Z,44.47
2022-10-17T23:53:17.985Z,43.33
2022-10-17T23:55:44.504Z,47.03
2022-10-17T23:58:11.156Z,45.47
